sensor_id;sensor_type;location;lat;lon;timestamp;noise_LAeq;noise_LA_min;noise_LA_max;noise_LA01;noise_LA95
36217;Laerm;22259;48.792;8.964;2023-07-20T00:02:07;43.12;40.13;45.54;;
36217;Laerm;22259;48.792;8.964;2023-07-20T00:04:33;43.32;40.80;47.10;;
36217;Laerm;22259;48.792;8.964;2023-07-20T00:06:58;43.26;40.67;45.64;;
36217;Laerm;22259;48.792;8.964;2023-07-20T00:09:26;42.73;39.34;46.30;;
36217;Laerm;22259;48.792;8.964;2023-07-20T00:11:51;42.58;39.61;45.86;;
36217;Laerm;22259;48.792;8.964;2023-07-20T00:14:17;41.64;38.41;45.69;;
36217;Laerm;22259;48.792;8.964;2023-07-20T00:16:43;41.30;38.52;43.89;;
36217;Laerm;22259;48.792;8.964;2023-07-20T00:19:08;41.40;38.37;46.83;;
36217;Laerm;22259;48.792;8.964;2023-07-20T00:21:35;40.83;38.37;50.59;;
36217;Laerm;22259;48.792;8.964;2023-07-20T00:24:02;41.35;38.45;43.81;;
36217;Laerm;22259;48.792;8.964;2023-07-20T00:26:27;40.87;38.41;50.83;;
36217;Laerm;22259;48.792;8.964;2023-07-20T00:28:52;42.78;39.43;46.40;;
36217;Laerm;22259;48.792;8.964;2023-07-20T00:31:18;42.72;39.89;44.99;;
36217;Laerm;22259;48.792;8.964;2023-07-20T00:33:43;42.17;39.08;44.89;;
36217;Laerm;22259;48.792;8.964;2023-07-20T00:36:08;42.84;39.52;48.03;;
36217;Laerm;22259;48.792;8.964;2023-07-20T00:38:34;43.37;39.81;46.53;;
36217;Laerm;22259;48.792;8.964;2023-07-20T00:40:59;42.16;39.25;45.11;;
36217;Laerm;22259;48.792;8.964;2023-07-20T00:43:25;42.61;39.08;45.83;;
36217;Laerm;22259;48.792;8.964;2023-07-20T00:45:50;42.01;39.28;45.93;;
36217;Laerm;22259;48.792;8.964;2023-07-20T00:48:15;42.25;39.52;45.92;;
36217;Laerm;22259;48.792;8.964;2023-07-20T00:50:41;41.60;39.05;44.78;;
36217;Laerm;22259;48.792;8.964;2023-07-20T00:53:06;41.82;38.85;44.39;;
36217;Laerm;22259;48.792;8.964;2023-07-20T00:55:32;41.85;38.81;44.41;;
36217;Laerm;22259;48.792;8.964;2023-07-20T00:57:57;42.87;39.64;47.07;;
36217;Laerm;22259;48.792;8.964;2023-07-20T01:00:23;42.88;39.75;49.36;;
36217;Laerm;22259;48.792;8.964;2023-07-20T01:02:48;42.50;39.02;50.06;;
36217;Laerm;22259;48.792;8.964;2023-07-20T01:05:14;43.01;40.05;50.51;;
36217;Laerm;22259;48.792;8.964;2023-07-20T01:07:44;43.08;40.13;48.53;;
36217;Laerm;22259;48.792;8.964;2023-07-20T01:13:19;43.70;41.22;51.17;;
36217;Laerm;22259;48.792;8.964;2023-07-20T01:15:49;44.37;41.72;50.17;;
36217;Laerm;22259;48.792;8.964;2023-07-20T01:18:14;43.82;40.78;47.23;;
36217;Laerm;22259;48.792;8.964;2023-07-20T01:20:39;44.31;41.44;48.58;;
36217;Laerm;22259;48.792;8.964;2023-07-20T01:23:57;43.60;40.78;47.27;;
36217;Laerm;22259;48.792;8.964;2023-07-20T01:26:34;43.71;40.77;48.07;;
36217;Laerm;22259;48.792;8.964;2023-07-20T01:29:11;43.17;40.36;45.60;;
36217;Laerm;22259;48.792;8.964;2023-07-20T01:31:42;43.66;41.26;49.32;;
36217;Laerm;22259;48.792;8.964;2023-07-20T01:34:09;44.05;41.53;48.56;;
36217;Laerm;22259;48.792;8.964;2023-07-20T01:36:37;44.25;41.14;52.49;;
36217;Laerm;22259;48.792;8.964;2023-07-20T01:39:03;44.23;40.73;51.08;;
36217;Laerm;22259;48.792;8.964;2023-07-20T01:41:29;43.63;40.28;49.24;;
36217;Laerm;22259;48.792;8.964;2023-07-20T01:43:57;42.48;38.92;46.55;;
36217;Laerm;22259;48.792;8.964;2023-07-20T01:46:23;43.04;40.13;47.54;;
36217;Laerm;22259;48.792;8.964;2023-07-20T01:48:48;43.36;40.87;47.87;;
36217;Laerm;22259;48.792;8.964;2023-07-20T01:51:15;43.49;40.21;51.58;;
36217;Laerm;22259;48.792;8.964;2023-07-20T01:53:42;43.84;40.93;48.56;;
36217;Laerm;22259;48.792;8.964;2023-07-20T01:56:08;44.39;41.20;49.04;;
36217;Laerm;22259;48.792;8.964;2023-07-20T01:58:33;43.68;39.73;62.19;;
36217;Laerm;22259;48.792;8.964;2023-07-20T02:01:00;51.66;41.96;68.26;;
36217;Laerm;22259;48.792;8.964;2023-07-20T02:03:26;44.33;41.53;50.46;;
36217;Laerm;22259;48.792;8.964;2023-07-20T02:05:52;43.68;40.13;47.61;;
36217;Laerm;22259;48.792;8.964;2023-07-20T02:08:17;44.16;41.36;56.41;;
36217;Laerm;22259;48.792;8.964;2023-07-20T02:10:45;49.67;41.91;65.89;;
36217;Laerm;22259;48.792;8.964;2023-07-20T02:13:10;44.49;41.50;49.37;;
36217;Laerm;22259;48.792;8.964;2023-07-20T02:15:36;43.85;41.08;48.95;;
36217;Laerm;22259;48.792;8.964;2023-07-20T02:18:01;47.76;41.48;64.04;;
36217;Laerm;22259;48.792;8.964;2023-07-20T02:20:28;59.36;41.22;79.56;;
36217;Laerm;22259;48.792;8.964;2023-07-20T02:22:54;44.00;40.76;50.26;;
36217;Laerm;22259;48.792;8.964;2023-07-20T02:25:19;43.37;40.55;46.46;;
36217;Laerm;22259;48.792;8.964;2023-07-20T02:27:44;43.33;40.64;45.38;;
36217;Laerm;22259;48.792;8.964;2023-07-20T02:30:10;43.21;41.12;45.77;;
36217;Laerm;22259;48.792;8.964;2023-07-20T02:32:36;43.14;40.80;44.79;;
36217;Laerm;22259;48.792;8.964;2023-07-20T02:35:01;42.84;40.27;44.98;;
36217;Laerm;22259;48.792;8.964;2023-07-20T02:37:28;55.07;41.22;71.63;;
36217;Laerm;22259;48.792;8.964;2023-07-20T02:39:54;43.39;41.00;47.24;;
36217;Laerm;22259;48.792;8.964;2023-07-20T02:42:19;43.63;41.40;45.74;;
36217;Laerm;22259;48.792;8.964;2023-07-20T02:44:47;53.25;41.79;68.65;;
36217;Laerm;22259;48.792;8.964;2023-07-20T02:47:13;43.15;40.80;45.70;;
36217;Laerm;22259;48.792;8.964;2023-07-20T02:49:38;43.83;41.89;45.83;;
36217;Laerm;22259;48.792;8.964;2023-07-20T02:52:04;44.38;42.01;47.20;;
36217;Laerm;22259;48.792;8.964;2023-07-20T02:54:30;44.05;41.88;46.97;;
36217;Laerm;22259;48.792;8.964;2023-07-20T02:56:55;44.56;42.14;49.20;;
36217;Laerm;22259;48.792;8.964;2023-07-20T02:59:21;44.13;41.68;46.78;;
36217;Laerm;22259;48.792;8.964;2023-07-20T03:01:46;48.01;41.64;63.85;;
36217;Laerm;22259;48.792;8.964;2023-07-20T03:04:12;43.62;40.86;50.16;;
36217;Laerm;22259;48.792;8.964;2023-07-20T03:06:37;43.67;41.30;45.55;;
36217;Laerm;22259;48.792;8.964;2023-07-20T03:09:02;61.22;41.81;73.08;;
36217;Laerm;22259;48.792;8.964;2023-07-20T03:11:32;45.71;41.68;58.00;;
36217;Laerm;22259;48.792;8.964;2023-07-20T03:13:57;44.02;41.57;48.21;;
36217;Laerm;22259;48.792;8.964;2023-07-20T03:16:23;55.57;42.35;70.28;;
36217;Laerm;22259;48.792;8.964;2023-07-20T03:18:50;43.96;41.93;48.59;;
36217;Laerm;22259;48.792;8.964;2023-07-20T03:21:16;44.84;42.24;49.31;;
36217;Laerm;22259;48.792;8.964;2023-07-20T03:23:41;44.53;41.89;47.99;;
36217;Laerm;22259;48.792;8.964;2023-07-20T03:26:07;44.57;42.19;52.66;;
36217;Laerm;22259;48.792;8.964;2023-07-20T03:28:36;45.51;42.47;67.77;;
36217;Laerm;22259;48.792;8.964;2023-07-20T03:31:01;56.10;42.09;70.25;;
36217;Laerm;22259;48.792;8.964;2023-07-20T03:33:30;45.51;42.68;56.50;;
36217;Laerm;22259;48.792;8.964;2023-07-20T03:35:56;44.90;42.69;48.95;;
36217;Laerm;22259;48.792;8.964;2023-07-20T03:38:22;44.97;42.47;52.86;;
36217;Laerm;22259;48.792;8.964;2023-07-20T03:40:51;45.01;42.08;57.46;;
36217;Laerm;22259;48.792;8.964;2023-07-20T03:43:16;45.11;42.06;57.02;;
36217;Laerm;22259;48.792;8.964;2023-07-20T03:45:42;55.58;42.43;73.94;;
36217;Laerm;22259;48.792;8.964;2023-07-20T03:48:07;52.34;42.24;70.61;;
36217;Laerm;22259;48.792;8.964;2023-07-20T03:50:33;44.62;42.35;55.24;;
36217;Laerm;22259;48.792;8.964;2023-07-20T03:52:58;44.65;42.55;55.80;;
36217;Laerm;22259;48.792;8.964;2023-07-20T03:55:24;44.44;42.83;49.46;;
36217;Laerm;22259;48.792;8.964;2023-07-20T03:57:49;45.20;42.55;62.71;;
36217;Laerm;22259;48.792;8.964;2023-07-20T04:00:16;55.06;42.62;70.65;;
36217;Laerm;22259;48.792;8.964;2023-07-20T04:02:41;52.89;42.68;70.84;;
36217;Laerm;22259;48.792;8.964;2023-07-20T04:05:07;45.40;42.98;62.78;;
36217;Laerm;22259;48.792;8.964;2023-07-20T04:07:32;49.84;43.29;67.91;;
36217;Laerm;22259;48.792;8.964;2023-07-20T04:09:58;45.11;43.23;49.75;;
36217;Laerm;22259;48.792;8.964;2023-07-20T04:12:23;45.07;43.04;49.38;;
36217;Laerm;22259;48.792;8.964;2023-07-20T04:14:48;54.60;43.26;73.77;;
36217;Laerm;22259;48.792;8.964;2023-07-20T04:17:14;51.24;42.66;65.36;;
36217;Laerm;22259;48.792;8.964;2023-07-20T04:19:39;44.91;42.46;58.01;;
36217;Laerm;22259;48.792;8.964;2023-07-20T04:22:04;44.62;42.47;57.38;;
36217;Laerm;22259;48.792;8.964;2023-07-20T04:24:30;43.76;41.50;46.88;;
36217;Laerm;22259;48.792;8.964;2023-07-20T04:26:55;45.16;42.09;55.61;;
36217;Laerm;22259;48.792;8.964;2023-07-20T04:29:21;45.44;42.69;51.82;;
36217;Laerm;22259;48.792;8.964;2023-07-20T04:31:46;56.24;43.24;70.16;;
36217;Laerm;22259;48.792;8.964;2023-07-20T04:34:11;46.16;43.28;53.41;;
36217;Laerm;22259;48.792;8.964;2023-07-20T04:36:37;51.84;42.75;70.37;;
36217;Laerm;22259;48.792;8.964;2023-07-20T04:39:02;45.03;42.58;53.40;;
36217;Laerm;22259;48.792;8.964;2023-07-20T04:41:28;49.95;43.14;67.08;;
36217;Laerm;22259;48.792;8.964;2023-07-20T04:43:53;46.04;42.64;54.99;;
36217;Laerm;22259;48.792;8.964;2023-07-20T04:46:19;55.28;41.98;70.98;;
36217;Laerm;22259;48.792;8.964;2023-07-20T04:48:46;51.69;41.66;65.84;;
36217;Laerm;22259;48.792;8.964;2023-07-20T04:51:13;44.08;41.66;61.09;;
36217;Laerm;22259;48.792;8.964;2023-07-20T04:53:38;44.13;41.08;53.89;;
36217;Laerm;22259;48.792;8.964;2023-07-20T04:56:03;44.66;41.61;55.40;;
36217;Laerm;22259;48.792;8.964;2023-07-20T04:58:29;43.77;41.12;49.27;;
36217;Laerm;22259;48.792;8.964;2023-07-20T05:00:54;46.91;41.73;69.51;;
36217;Laerm;22259;48.792;8.964;2023-07-20T05:03:20;57.49;41.24;73.33;;
36217;Laerm;22259;48.792;8.964;2023-07-20T05:05:46;43.55;40.95;48.29;;
36217;Laerm;22259;48.792;8.964;2023-07-20T05:08:11;53.08;40.50;71.01;;
36217;Laerm;22259;48.792;8.964;2023-07-20T05:10:37;43.28;40.97;53.96;;
36217;Laerm;22259;48.792;8.964;2023-07-20T05:13:02;48.93;40.53;65.22;;
36217;Laerm;22259;48.792;8.964;2023-07-20T05:15:28;53.50;41.57;72.16;;
36217;Laerm;22259;48.792;8.964;2023-07-20T05:17:53;54.01;42.35;70.34;;
36217;Laerm;22259;48.792;8.964;2023-07-20T05:20:19;61.99;41.26;75.28;;
36217;Laerm;22259;48.792;8.964;2023-07-20T05:22:45;48.14;41.02;66.89;;
36217;Laerm;22259;48.792;8.964;2023-07-20T05:25:11;43.10;41.06;52.48;;
36217;Laerm;22259;48.792;8.964;2023-07-20T05:27:36;43.17;41.00;52.56;;
36217;Laerm;22259;48.792;8.964;2023-07-20T05:30:02;53.39;41.06;73.51;;
36217;Laerm;22259;48.792;8.964;2023-07-20T05:32:28;55.44;40.55;70.46;;
36217;Laerm;22259;48.792;8.964;2023-07-20T05:34:53;43.63;40.64;49.03;;
36217;Laerm;22259;48.792;8.964;2023-07-20T05:37:19;42.85;40.53;52.36;;
36217;Laerm;22259;48.792;8.964;2023-07-20T05:39:44;49.92;40.18;68.44;;
36217;Laerm;22259;48.792;8.964;2023-07-20T05:42:10;52.87;40.23;72.62;;
36217;Laerm;22259;48.792;8.964;2023-07-20T05:44:35;55.22;40.71;70.30;;
36217;Laerm;22259;48.792;8.964;2023-07-20T05:47:00;53.75;41.66;67.19;;
36217;Laerm;22259;48.792;8.964;2023-07-20T05:49:27;42.87;40.38;48.80;;
36217;Laerm;22259;48.792;8.964;2023-07-20T05:51:54;42.64;40.50;59.75;;
36217;Laerm;22259;48.792;8.964;2023-07-20T05:54:19;42.15;40.08;49.39;;
36217;Laerm;22259;48.792;8.964;2023-07-20T05:56:45;44.87;39.25;69.12;;
36217;Laerm;22259;48.792;8.964;2023-07-20T05:59:11;42.99;40.16;50.47;;
36217;Laerm;22259;48.792;8.964;2023-07-20T06:01:37;54.75;40.04;72.78;;
36217;Laerm;22259;48.792;8.964;2023-07-20T06:04:02;54.58;40.18;66.57;;
36217;Laerm;22259;48.792;8.964;2023-07-20T06:06:28;52.49;39.89;71.38;;
36217;Laerm;22259;48.792;8.964;2023-07-20T06:08:54;42.55;39.43;57.85;;
36217;Laerm;22259;48.792;8.964;2023-07-20T06:11:19;54.47;39.81;68.94;;
36217;Laerm;22259;48.792;8.964;2023-07-20T06:13:45;51.29;40.95;68.49;;
36217;Laerm;22259;48.792;8.964;2023-07-20T06:16:10;55.02;40.21;69.84;;
36217;Laerm;22259;48.792;8.964;2023-07-20T06:18:36;53.65;40.05;70.03;;
36217;Laerm;22259;48.792;8.964;2023-07-20T06:21:01;42.58;39.81;47.90;;
36217;Laerm;22259;48.792;8.964;2023-07-20T06:23:26;42.21;39.81;49.63;;
36217;Laerm;22259;48.792;8.964;2023-07-20T06:25:52;41.77;39.38;51.34;;
36217;Laerm;22259;48.792;8.964;2023-07-20T06:28:17;42.12;39.08;55.80;;
36217;Laerm;22259;48.792;8.964;2023-07-20T06:30:43;55.09;39.31;70.99;;
36217;Laerm;22259;48.792;8.964;2023-07-20T06:33:08;54.07;39.28;70.83;;
36217;Laerm;22259;48.792;8.964;2023-07-20T06:35:34;50.16;39.29;69.70;;
36217;Laerm;22259;48.792;8.964;2023-07-20T06:37:59;48.39;38.78;69.88;;
36217;Laerm;22259;48.792;8.964;2023-07-20T06:40:25;41.59;38.37;53.07;;
36217;Laerm;22259;48.792;8.964;2023-07-20T06:42:51;50.06;38.01;67.91;;
36217;Laerm;22259;48.792;8.964;2023-07-20T06:45:16;55.54;39.55;71.93;;
36217;Laerm;22259;48.792;8.964;2023-07-20T06:47:42;42.42;39.55;56.55;;
36217;Laerm;22259;48.792;8.964;2023-07-20T06:50:08;53.75;40.53;68.99;;
36217;Laerm;22259;48.792;8.964;2023-07-20T06:52:33;43.05;39.18;67.45;;
36217;Laerm;22259;48.792;8.964;2023-07-20T06:54:58;42.15;39.21;63.11;;
36217;Laerm;22259;48.792;8.964;2023-07-20T06:57:24;42.50;39.96;47.99;;
36217;Laerm;22259;48.792;8.964;2023-07-20T06:59:50;42.82;39.49;53.78;;
36217;Laerm;22259;48.792;8.964;2023-07-20T07:02:15;54.32;39.78;71.54;;
36217;Laerm;22259;48.792;8.964;2023-07-20T07:04:41;53.47;39.52;68.85;;
36217;Laerm;22259;48.792;8.964;2023-07-20T07:07:06;57.93;39.89;68.94;;
36217;Laerm;22259;48.792;8.964;2023-07-20T07:09:32;43.26;39.86;57.79;;
36217;Laerm;22259;48.792;8.964;2023-07-20T07:11:57;53.29;40.31;70.69;;
36217;Laerm;22259;48.792;8.964;2023-07-20T07:14:23;43.64;40.13;58.72;;
36217;Laerm;22259;48.792;8.964;2023-07-20T07:16:48;57.14;42.29;70.93;;
36217;Laerm;22259;48.792;8.964;2023-07-20T07:19:13;47.86;40.26;73.76;;
36217;Laerm;22259;48.792;8.964;2023-07-20T07:21:39;48.90;39.84;77.38;;
36217;Laerm;22259;48.792;8.964;2023-07-20T07:24:05;57.64;42.92;77.01;;
36217;Laerm;22259;48.792;8.964;2023-07-20T07:26:32;60.28;39.95;72.94;;
36217;Laerm;22259;48.792;8.964;2023-07-20T07:28:57;44.34;39.58;57.54;;
36217;Laerm;22259;48.792;8.964;2023-07-20T07:31:24;57.44;40.46;70.59;;
36217;Laerm;22259;48.792;8.964;2023-07-20T07:33:49;51.29;40.26;62.79;;
36217;Laerm;22259;48.792;8.964;2023-07-20T07:36:15;52.60;40.00;65.36;;
36217;Laerm;22259;48.792;8.964;2023-07-20T07:38:40;49.42;40.93;70.15;;
36217;Laerm;22259;48.792;8.964;2023-07-20T07:41:06;45.83;39.89;60.78;;
36217;Laerm;22259;48.792;8.964;2023-07-20T07:43:31;42.93;40.53;51.08;;
36217;Laerm;22259;48.792;8.964;2023-07-20T07:45:57;51.83;40.23;75.52;;
36217;Laerm;22259;48.792;8.964;2023-07-20T07:48:22;55.68;40.87;78.61;;
36217;Laerm;22259;48.792;8.964;2023-07-20T07:50:50;55.34;40.73;77.05;;
36217;Laerm;22259;48.792;8.964;2023-07-20T07:53:15;44.54;40.64;65.44;;
36217;Laerm;22259;48.792;8.964;2023-07-20T07:55:41;44.13;40.28;62.96;;
36217;Laerm;22259;48.792;8.964;2023-07-20T07:58:06;43.84;40.60;56.94;;
36217;Laerm;22259;48.792;8.964;2023-07-20T08:00:31;44.79;40.73;62.89;;
36217;Laerm;22259;48.792;8.964;2023-07-20T08:02:57;56.05;41.50;68.35;;
36217;Laerm;22259;48.792;8.964;2023-07-20T08:05:22;50.08;40.05;72.34;;
36217;Laerm;22259;48.792;8.964;2023-07-20T08:07:47;43.20;40.50;50.55;;
36217;Laerm;22259;48.792;8.964;2023-07-20T08:10:13;43.47;40.08;53.01;;
36217;Laerm;22259;48.792;8.964;2023-07-20T08:12:38;42.92;40.18;50.78;;
36217;Laerm;22259;48.792;8.964;2023-07-20T08:15:04;54.80;41.34;73.45;;
36217;Laerm;22259;48.792;8.964;2023-07-20T08:17:29;51.16;40.82;64.94;;
36217;Laerm;22259;48.792;8.964;2023-07-20T08:19:55;44.61;41.53;58.51;;
36217;Laerm;22259;48.792;8.964;2023-07-20T08:22:20;44.51;40.89;59.41;;
36217;Laerm;22259;48.792;8.964;2023-07-20T08:24:45;43.42;39.58;53.29;;
36217;Laerm;22259;48.792;8.964;2023-07-20T08:27:11;43.23;40.33;55.86;;
36217;Laerm;22259;48.792;8.964;2023-07-20T08:29:36;44.83;41.30;58.05;;
36217;Laerm;22259;48.792;8.964;2023-07-20T08:32:02;56.68;41.88;71.99;;
36217;Laerm;22259;48.792;8.964;2023-07-20T08:34:29;44.66;41.51;56.57;;
36217;Laerm;22259;48.792;8.964;2023-07-20T08:36:55;45.10;40.93;65.26;;
36217;Laerm;22259;48.792;8.964;2023-07-20T08:39:21;44.88;41.73;59.42;;
36217;Laerm;22259;48.792;8.964;2023-07-20T08:41:47;45.30;41.48;54.80;;
36217;Laerm;22259;48.792;8.964;2023-07-20T08:44:13;44.32;41.20;53.20;;
36217;Laerm;22259;48.792;8.964;2023-07-20T08:46:39;55.55;40.31;69.94;;
36217;Laerm;22259;48.792;8.964;2023-07-20T08:49:06;45.79;40.97;60.61;;
36217;Laerm;22259;48.792;8.964;2023-07-20T08:51:31;44.04;40.82;56.22;;
36217;Laerm;22259;48.792;8.964;2023-07-20T08:53:58;45.02;41.79;55.94;;
36217;Laerm;22259;48.792;8.964;2023-07-20T08:56:24;45.58;41.89;55.08;;
36217;Laerm;22259;48.792;8.964;2023-07-20T08:58:50;44.65;41.91;54.28;;
36217;Laerm;22259;48.792;8.964;2023-07-20T09:01:17;56.97;41.72;72.21;;
36217;Laerm;22259;48.792;8.964;2023-07-20T09:03:43;46.61;42.44;64.36;;
36217;Laerm;22259;48.792;8.964;2023-07-20T09:06:10;45.73;42.01;64.53;;
36217;Laerm;22259;48.792;8.964;2023-07-20T09:08:37;46.30;43.18;55.83;;
36217;Laerm;22259;48.792;8.964;2023-07-20T09:11:03;63.17;42.37;79.56;;
36217;Laerm;22259;48.792;8.964;2023-07-20T09:13:29;46.34;41.91;60.68;;
36217;Laerm;22259;48.792;8.964;2023-07-20T09:15:54;55.15;41.81;71.58;;
36217;Laerm;22259;48.792;8.964;2023-07-20T09:18:29;51.37;41.86;63.84;;
36217;Laerm;22259;48.792;8.964;2023-07-20T09:21:02;45.90;42.18;60.35;;
36217;Laerm;22259;48.792;8.964;2023-07-20T09:23:37;43.95;41.40;50.00;;
36217;Laerm;22259;48.792;8.964;2023-07-20T09:26:10;44.35;40.81;54.66;;
36217;Laerm;22259;48.792;8.964;2023-07-20T09:28:42;45.46;41.63;61.47;;
36217;Laerm;22259;48.792;8.964;2023-07-20T09:31:15;47.65;42.27;58.72;;
36217;Laerm;22259;48.792;8.964;2023-07-20T09:33:41;56.18;42.58;71.66;;
36217;Laerm;22259;48.792;8.964;2023-07-20T09:36:07;47.01;42.72;65.13;;
36217;Laerm;22259;48.792;8.964;2023-07-20T09:38:34;44.70;42.89;52.17;;
36217;Laerm;22259;48.792;8.964;2023-07-20T09:41:01;45.15;42.79;55.27;;
36217;Laerm;22259;48.792;8.964;2023-07-20T09:43:28;47.03;42.75;54.62;;
36217;Laerm;22259;48.792;8.964;2023-07-20T09:45:57;52.89;42.04;70.63;;
36217;Laerm;22259;48.792;8.964;2023-07-20T09:48:23;53.23;43.28;69.03;;
36217;Laerm;22259;48.792;8.964;2023-07-20T09:50:50;47.01;42.83;57.17;;
36217;Laerm;22259;48.792;8.964;2023-07-20T09:53:16;45.16;41.77;50.60;;
36217;Laerm;22259;48.792;8.964;2023-07-20T09:55:46;45.92;43.10;51.92;;
36217;Laerm;22259;48.792;8.964;2023-07-20T09:58:12;49.22;43.51;58.37;;
36217;Laerm;22259;48.792;8.964;2023-07-20T10:00:38;47.24;42.79;54.35;;
36217;Laerm;22259;48.792;8.964;2023-07-20T10:03:05;55.66;42.29;68.85;;
36217;Laerm;22259;48.792;8.964;2023-07-20T10:05:34;44.21;41.32;50.60;;
36217;Laerm;22259;48.792;8.964;2023-07-20T10:08:01;45.74;42.33;52.66;;
36217;Laerm;22259;48.792;8.964;2023-07-20T10:10:27;48.79;44.44;60.61;;
36217;Laerm;22259;48.792;8.964;2023-07-20T10:12:52;47.15;43.61;60.67;;
36217;Laerm;22259;48.792;8.964;2023-07-20T10:15:23;54.50;43.49;77.26;;
36217;Laerm;22259;48.792;8.964;2023-07-20T10:17:53;53.70;43.29;70.53;;
36217;Laerm;22259;48.792;8.964;2023-07-20T10:20:22;46.56;42.50;58.32;;
36217;Laerm;22259;48.792;8.964;2023-07-20T10:22:48;44.08;42.03;49.69;;
36217;Laerm;22259;48.792;8.964;2023-07-20T10:25:15;46.13;42.50;59.80;;
36217;Laerm;22259;48.792;8.964;2023-07-20T10:27:40;46.35;42.19;55.20;;
36217;Laerm;22259;48.792;8.964;2023-07-20T10:30:06;45.65;42.13;54.14;;
36217;Laerm;22259;48.792;8.964;2023-07-20T10:32:32;56.80;43.02;69.92;;
36217;Laerm;22259;48.792;8.964;2023-07-20T10:34:58;47.34;43.23;64.87;;
36217;Laerm;22259;48.792;8.964;2023-07-20T10:43:21;45.02;41.06;61.12;;
36217;Laerm;22259;48.792;8.964;2023-07-20T10:45:49;54.99;41.46;73.10;;
36217;Laerm;22259;48.792;8.964;2023-07-20T10:48:19;53.00;40.87;70.11;;
36217;Laerm;22259;48.792;8.964;2023-07-20T10:50:45;44.61;40.76;54.41;;
36217;Laerm;22259;48.792;8.964;2023-07-20T10:53:16;46.32;41.96;57.73;;
36217;Laerm;22259;48.792;8.964;2023-07-20T10:55:42;43.86;41.66;52.72;;
36217;Laerm;22259;48.792;8.964;2023-07-20T10:58:12;44.69;41.42;56.91;;
36217;Laerm;22259;48.792;8.964;2023-07-20T11:00:59;54.88;42.06;70.99;;
36217;Laerm;22259;48.792;8.964;2023-07-20T11:03:29;51.62;41.70;68.75;;
36217;Laerm;22259;48.792;8.964;2023-07-20T11:05:56;44.40;41.93;57.29;;
36217;Laerm;22259;48.792;8.964;2023-07-20T11:08:40;44.30;41.75;49.95;;
36217;Laerm;22259;48.792;8.964;2023-07-20T11:13:53;45.53;41.86;50.91;;
36217;Laerm;22259;48.792;8.964;2023-07-20T11:16:18;55.33;42.19;73.05;;
36217;Laerm;22259;48.792;8.964;2023-07-20T11:18:44;52.45;41.68;68.68;;
36217;Laerm;22259;48.792;8.964;2023-07-20T11:21:10;45.34;42.16;54.98;;
36217;Laerm;22259;48.792;8.964;2023-07-20T11:23:37;49.14;42.75;59.79;;
36217;Laerm;22259;48.792;8.964;2023-07-20T11:26:03;46.44;42.15;59.47;;
36217;Laerm;22259;48.792;8.964;2023-07-20T11:28:29;43.82;40.46;50.77;;
36217;Laerm;22259;48.792;8.964;2023-07-20T11:30:55;55.03;40.50;69.16;;
36217;Laerm;22259;48.792;8.964;2023-07-20T11:33:20;52.42;41.98;67.32;;
36217;Laerm;22259;48.792;8.964;2023-07-20T11:35:46;46.94;42.16;56.85;;
36217;Laerm;22259;48.792;8.964;2023-07-20T11:38:15;43.91;40.43;49.47;;
36217;Laerm;22259;48.792;8.964;2023-07-20T11:40:44;42.61;39.96;54.07;;
36217;Laerm;22259;48.792;8.964;2023-07-20T11:43:10;43.93;40.95;52.07;;
36217;Laerm;22259;48.792;8.964;2023-07-20T11:45:37;54.01;41.16;70.05;;
36217;Laerm;22259;48.792;8.964;2023-07-20T11:48:02;53.19;41.55;68.80;;
36217;Laerm;22259;48.792;8.964;2023-07-20T11:50:28;46.45;40.87;55.10;;
36217;Laerm;22259;48.792;8.964;2023-07-20T11:52:54;44.58;41.46;52.63;;
36217;Laerm;22259;48.792;8.964;2023-07-20T11:55:19;49.51;41.18;64.16;;
36217;Laerm;22259;48.792;8.964;2023-07-20T11:58:00;43.28;41.24;49.35;;
36217;Laerm;22259;48.792;8.964;2023-07-20T12:00:26;54.08;40.33;71.67;;
36217;Laerm;22259;48.792;8.964;2023-07-20T12:02:53;43.76;40.67;52.80;;
36217;Laerm;22259;48.792;8.964;2023-07-20T12:05:18;44.02;41.06;51.69;;
36217;Laerm;22259;48.792;8.964;2023-07-20T12:07:44;53.07;40.67;71.47;;
36217;Laerm;22259;48.792;8.964;2023-07-20T12:10:10;43.32;40.95;47.77;;
36217;Laerm;22259;48.792;8.964;2023-07-20T12:12:39;43.52;41.16;50.09;;
36217;Laerm;22259;48.792;8.964;2023-07-20T12:15:22;52.18;42.04;63.76;;
36217;Laerm;22259;48.792;8.964;2023-07-20T12:17:51;54.14;41.08;71.26;;
36217;Laerm;22259;48.792;8.964;2023-07-20T12:20:32;43.16;41.00;47.38;;
36217;Laerm;22259;48.792;8.964;2023-07-20T12:23:03;44.39;41.99;50.66;;
36217;Laerm;22259;48.792;8.964;2023-07-20T12:25:32;43.18;40.31;54.65;;
36217;Laerm;22259;48.792;8.964;2023-07-20T12:28:00;43.38;40.71;50.85;;
36217;Laerm;22259;48.792;8.964;2023-07-20T12:30:25;54.67;40.91;71.42;;
36217;Laerm;22259;48.792;8.964;2023-07-20T12:32:51;53.16;41.44;67.90;;
36217;Laerm;22259;48.792;8.964;2023-07-20T12:38:01;47.14;41.40;61.18;;
36217;Laerm;22259;48.792;8.964;2023-07-20T12:40:27;45.99;42.40;57.85;;
36217;Laerm;22259;48.792;8.964;2023-07-20T12:42:52;43.61;39.61;60.76;;
36217;Laerm;22259;48.792;8.964;2023-07-20T12:45:18;55.32;39.78;71.03;;
36217;Laerm;22259;48.792;8.964;2023-07-20T12:47:43;53.85;39.64;69.36;;
36217;Laerm;22259;48.792;8.964;2023-07-20T12:50:09;44.80;41.83;53.17;;
36217;Laerm;22259;48.792;8.964;2023-07-20T12:52:38;43.38;40.64;52.03;;
36217;Laerm;22259;48.792;8.964;2023-07-20T12:55:04;43.38;41.06;56.13;;
36217;Laerm;22259;48.792;8.964;2023-07-20T12:57:30;42.63;40.46;46.50;;
36217;Laerm;22259;48.792;8.964;2023-07-20T12:59:55;42.92;40.73;49.58;;
36217;Laerm;22259;48.792;8.964;2023-07-20T13:02:21;58.24;41.24;74.06;;
36217;Laerm;22259;48.792;8.964;2023-07-20T13:04:46;43.14;40.57;49.82;;
36217;Laerm;22259;48.792;8.964;2023-07-20T13:07:12;57.18;40.16;69.11;;
36217;Laerm;22259;48.792;8.964;2023-07-20T13:09:37;51.16;39.95;66.68;;
36217;Laerm;22259;48.792;8.964;2023-07-20T13:12:03;45.56;40.64;60.44;;
36217;Laerm;22259;48.792;8.964;2023-07-20T13:14:28;44.28;41.26;61.37;;
36217;Laerm;22259;48.792;8.964;2023-07-20T13:16:55;56.02;40.55;72.41;;
36217;Laerm;22259;48.792;8.964;2023-07-20T13:19:20;42.76;40.57;48.50;;
36217;Laerm;22259;48.792;8.964;2023-07-20T13:21:46;52.81;41.51;69.31;;
36217;Laerm;22259;48.792;8.964;2023-07-20T13:24:11;45.29;42.09;52.10;;
36217;Laerm;22259;48.792;8.964;2023-07-20T13:26:37;47.51;42.98;52.71;;
36217;Laerm;22259;48.792;8.964;2023-07-20T13:29:02;44.19;40.20;53.40;;
36217;Laerm;22259;48.792;8.964;2023-07-20T13:31:28;55.42;40.46;71.26;;
36217;Laerm;22259;48.792;8.964;2023-07-20T13:33:53;55.18;40.60;70.20;;
36217;Laerm;22259;48.792;8.964;2023-07-20T13:36:18;45.41;41.28;59.80;;
36217;Laerm;22259;48.792;8.964;2023-07-20T13:38:45;51.21;41.14;69.12;;
36217;Laerm;22259;48.792;8.964;2023-07-20T13:41:11;43.86;40.93;57.33;;
36217;Laerm;22259;48.792;8.964;2023-07-20T13:43:36;44.17;40.80;54.24;;
36217;Laerm;22259;48.792;8.964;2023-07-20T13:46:02;55.74;40.60;71.58;;
36217;Laerm;22259;48.792;8.964;2023-07-20T13:48:27;44.21;40.93;52.12;;
36217;Laerm;22259;48.792;8.964;2023-07-20T13:50:52;53.17;42.37;69.34;;
36217;Laerm;22259;48.792;8.964;2023-07-20T13:53:18;44.11;41.77;48.81;;
36217;Laerm;22259;48.792;8.964;2023-07-20T13:55:44;47.73;43.14;60.86;;